createdAt,value
2018-10-06T00:00:39.038Z,91.10
2018-10-06T00:03:09.109Z,91.10
2018-10-06T00:05:39.145Z,91.30
2018-10-06T00:08:09.197Z,91.30
2018-10-06T00:10:39.275Z,91.30
2018-10-06T00:13:09.325Z,91.50
2018-10-06T00:15:39.365Z,91.70
2018-10-06T00:18:09.422Z,91.70
2018-10-06T00:20:39.437Z,91.80
2018-10-06T00:23:09.610Z,92.00
2018-10-06T00:25:39.677Z,91.60
2018-10-06T00:28:09.745Z,91.90
2018-10-06T00:30:39.814Z,92.10
2018-10-06T00:33:09.854Z,92.20
2018-10-06T00:35:40.034Z,92.20
2018-10-06T00:38:10.069Z,92.20
2018-10-06T00:40:40.090Z,92.20
2018-10-06T00:43:10.030Z,92.30
2018-10-06T00:45:40.085Z,92.70
2018-10-06T00:48:10.203Z,92.60
2018-10-06T00:50:40.267Z,92.40
2018-10-06T00:53:10.341Z,92.40
2018-10-06T00:55:40.381Z,92.40
2018-10-06T00:58:10.431Z,92.40
2018-10-06T01:00:40.445Z,92.50
2018-10-06T01:03:10.490Z,92.80
2018-10-06T01:05:40.537Z,92.70
2018-10-06T01:08:10.553Z,92.70
2018-10-06T01:10:40.601Z,92.70
2018-10-06T01:13:10.599Z,92.50
2018-10-06T01:15:41.516Z,92.70
2018-10-06T01:18:11.537Z,92.80
2018-10-06T01:20:41.573Z,92.90
2018-10-06T01:23:11.619Z,92.80
2018-10-06T01:25:41.635Z,92.80
2018-10-06T01:28:11.690Z,92.80
2018-10-06T01:30:41.733Z,92.90
2018-10-06T01:33:11.805Z,93.00
2018-10-06T01:35:41.882Z,92.90
2018-10-06T01:38:11.913Z,92.80
2018-10-06T01:40:41.952Z,93.10
2018-10-06T01:43:12.102Z,93.20
2018-10-06T01:45:42.158Z,93.10
2018-10-06T01:48:12.193Z,93.10
2018-10-06T01:50:42.306Z,93.10
2018-10-06T01:53:12.330Z,93.30
2018-10-06T01:55:42.369Z,93.40
2018-10-06T01:58:12.425Z,93.50
2018-10-06T02:00:42.505Z,93.30
2018-10-06T02:03:12.517Z,93.60
2018-10-06T02:05:42.571Z,93.50
2018-10-06T02:08:12.730Z,93.30
2018-10-06T02:10:42.829Z,93.40
2018-10-06T02:13:12.875Z,93.60
2018-10-06T02:15:42.950Z,93.20
2018-10-06T02:18:12.993Z,93.50
2018-10-06T02:20:43.021Z,93.40
2018-10-06T02:23:13.025Z,93.40
2018-10-06T02:25:42.975Z,93.60
2018-10-06T02:28:12.996Z,93.70
2018-10-06T02:30:43.010Z,93.80
2018-10-06T02:33:13.062Z,93.90
2018-10-06T02:35:43.215Z,93.70
2018-10-06T02:38:13.257Z,93.80
2018-10-06T02:40:43.310Z,93.90
2018-10-06T02:43:13.345Z,93.90
2018-10-06T02:45:43.379Z,93.80
2018-10-06T02:48:13.409Z,93.90
2018-10-06T02:50:43.474Z,94.30
2018-10-06T02:53:13.498Z,93.80
2018-10-06T02:55:43.602Z,93.90
2018-10-06T02:58:13.650Z,93.90
2018-10-06T03:00:43.718Z,93.70
2018-10-06T03:03:13.764Z,93.90
2018-10-06T03:05:43.850Z,94.00
2018-10-06T03:08:13.935Z,94.10
2018-10-06T03:10:44.029Z,94.20
2018-10-06T03:13:14.074Z,94.10
2018-10-06T03:15:44.149Z,94.10
2018-10-06T03:18:14.193Z,94.10
2018-10-06T03:20:44.306Z,94.00
2018-10-06T03:23:14.311Z,94.20
2018-10-06T03:25:44.361Z,94.10
2018-10-06T03:28:14.502Z,94.10
2018-10-06T03:30:44.527Z,93.90
2018-10-06T03:33:14.622Z,94.10
2018-10-06T03:35:44.654Z,94.10
2018-10-06T03:38:14.706Z,94.00
2018-10-06T03:40:44.766Z,94.10
2018-10-06T03:43:14.842Z,94.10
2018-10-06T03:45:44.977Z,94.00
2018-10-06T03:48:15.005Z,94.10
2018-10-06T03:50:45.173Z,94.10
2018-10-06T03:53:15.169Z,94.20
2018-10-06T03:55:45.234Z,94.10
2018-10-06T03:58:15.262Z,94.00
2018-10-06T04:00:45.289Z,94.10
2018-10-06T04:03:15.326Z,93.90
2018-10-06T04:05:45.378Z,94.10
2018-10-06T04:08:15.390Z,94.00
2018-10-06T04:10:45.393Z,94.10
2018-10-06T04:13:15.573Z,94.20
2018-10-06T04:15:45.594Z,94.20
2018-10-06T04:18:15.624Z,94.10
2018-10-06T04:20:45.730Z,94.00
2018-10-06T04:23:15.767Z,94.10
2018-10-06T04:25:45.837Z,94.00
2018-10-06T04:28:15.916Z,94.00
2018-10-06T04:30:45.941Z,94.20
2018-10-06T04:33:15.989Z,93.90
2018-10-06T04:35:46.014Z,94.20
2018-10-06T04:38:16.065Z,94.10
2018-10-06T04:40:46.133Z,94.20
2018-10-06T04:43:16.154Z,94.20
2018-10-06T04:45:46.270Z,94.20
2018-10-06T04:48:16.328Z,94.20
2018-10-06T04:50:46.443Z,94.30
2018-10-06T04:53:16.543Z,94.30
2018-10-06T04:55:46.521Z,94.30
2018-10-06T04:58:16.507Z,94.30
2018-10-06T05:00:46.590Z,94.20
2018-10-06T05:03:16.690Z,94.40
2018-10-06T05:05:46.810Z,94.30
2018-10-06T05:08:16.902Z,94.30
2018-10-06T05:10:46.991Z,94.30
2018-10-06T05:13:17.061Z,94.30
2018-10-06T05:15:47.205Z,94.40
2018-10-06T05:18:17.289Z,94.40
2018-10-06T05:20:47.358Z,94.50
2018-10-06T05:23:17.465Z,94.70
2018-10-06T05:25:47.533Z,94.70
2018-10-06T05:28:17.601Z,94.70
2018-10-06T05:30:47.797Z,94.60
2018-10-06T05:33:17.910Z,94.50
2018-10-06T05:35:48.113Z,94.60
2018-10-06T05:38:18.265Z,94.60
2018-10-06T05:40:48.394Z,94.60
2018-10-06T05:43:18.504Z,94.60
2018-10-06T05:45:48.664Z,94.60
2018-10-06T05:48:18.698Z,94.80
2018-10-06T05:50:48.845Z,94.90
2018-10-06T05:53:18.921Z,94.80
2018-10-06T05:55:49.013Z,94.80
2018-10-06T05:58:19.157Z,94.90
2018-10-06T06:00:49.336Z,94.90
2018-10-06T06:03:19.499Z,94.90
2018-10-06T06:05:49.677Z,95.10
2018-10-06T06:08:19.769Z,95.00
2018-10-06T06:10:49.866Z,95.10
2018-10-06T06:13:20.003Z,95.10
2018-10-06T06:15:50.127Z,95.00
2018-10-06T06:18:20.194Z,95.20
2018-10-06T06:20:50.274Z,95.10
2018-10-06T06:23:20.398Z,95.20
2018-10-06T06:25:50.502Z,95.00
2018-10-06T06:28:20.627Z,95.00
2018-10-06T06:30:50.670Z,94.90
2018-10-06T06:33:20.809Z,95.00
2018-10-06T06:35:50.945Z,95.00
2018-10-06T06:38:21.081Z,95.20
2018-10-06T06:40:52.001Z,95.10
2018-10-06T06:43:22.146Z,95.20
2018-10-06T06:45:52.215Z,95.30
2018-10-06T06:48:23.123Z,95.20
2018-10-06T06:50:54.484Z,95.30
2018-10-06T06:53:24.563Z,95.30
2018-10-06T06:55:54.649Z,95.30
2018-10-06T06:58:24.618Z,95.20
2018-10-06T07:00:54.730Z,95.40
2018-10-06T07:03:24.778Z,95.20
2018-10-06T07:05:54.918Z,95.20
2018-10-06T07:08:26.046Z,95.20
2018-10-06T07:10:56.121Z,95.30
2018-10-06T07:13:26.202Z,95.20
2018-10-06T07:15:56.365Z,95.10
2018-10-06T07:18:26.455Z,95.00
2018-10-06T07:20:56.545Z,95.10
2018-10-06T07:23:26.578Z,95.10
2018-10-06T07:25:56.685Z,95.00
2018-10-06T07:28:26.771Z,94.90
2018-10-06T07:30:56.841Z,95.00
2018-10-06T07:33:26.946Z,94.90
2018-10-06T07:35:57.018Z,94.70
2018-10-06T07:38:27.122Z,94.70
2018-10-06T07:40:57.181Z,94.70
2018-10-06T07:43:27.302Z,94.70
2018-10-06T07:45:57.373Z,94.60
2018-10-06T07:48:27.491Z,94.60
2018-10-06T07:50:57.513Z,94.80
2018-10-06T07:53:27.597Z,94.20
2018-10-06T07:55:57.703Z,94.30
2018-10-06T07:58:27.830Z,94.10
2018-10-06T08:00:57.924Z,94.10
2018-10-06T08:03:27.942Z,93.90
2018-10-06T08:05:58.083Z,93.90
2018-10-06T08:08:28.171Z,94.00
2018-10-06T08:10:58.249Z,93.90
2018-10-06T08:13:28.358Z,94.00
2018-10-06T08:15:58.397Z,93.60
2018-10-06T08:18:28.624Z,93.60
2018-10-06T08:20:58.709Z,93.30
2018-10-06T08:23:28.802Z,93.40
2018-10-06T08:25:58.922Z,93.10
2018-10-06T08:28:28.970Z,93.10
2018-10-06T08:30:59.070Z,92.90
2018-10-06T08:33:29.253Z,93.00
2018-10-06T08:35:59.356Z,92.70
2018-10-06T08:38:29.457Z,92.90
2018-10-06T08:40:59.570Z,92.20
2018-10-06T08:43:29.637Z,92.30
2018-10-06T08:45:59.730Z,91.80
2018-10-06T08:48:29.821Z,91.70
2018-10-06T08:50:59.882Z,90.90
2018-10-06T08:53:29.996Z,91.60
2018-10-06T08:56:01.093Z,90.60
2018-10-06T08:58:31.171Z,90.80
2018-10-06T09:01:01.378Z,90.70
2018-10-06T09:03:31.457Z,90.60
2018-10-06T09:06:01.534Z,90.30
2018-10-06T09:08:31.593Z,90.00
2018-10-06T09:11:01.682Z,90.10
2018-10-06T09:13:31.761Z,90.20
2018-10-06T09:16:01.772Z,90.00
2018-10-06T09:18:31.853Z,90.00
2018-10-06T09:21:01.918Z,89.10
2018-10-06T09:23:32.015Z,89.00
2018-10-06T09:26:02.141Z,88.20
2018-10-06T09:28:32.190Z,87.00
2018-10-06T09:31:02.293Z,87.70
2018-10-06T09:33:32.553Z,87.10
2018-10-06T09:36:02.689Z,86.50
2018-10-06T09:38:32.745Z,84.90
2018-10-06T09:41:02.861Z,85.70
2018-10-06T09:43:32.920Z,86.60
2018-10-06T09:46:02.988Z,86.40
2018-10-06T09:48:33.025Z,85.50
2018-10-06T09:51:03.143Z,84.50
2018-10-06T09:53:33.329Z,84.60
2018-10-06T09:56:03.323Z,85.00
2018-10-06T09:58:33.399Z,85.60
2018-10-06T10:01:08.587Z,84.20
2018-10-06T10:03:43.871Z,84.10
2018-10-06T10:06:13.962Z,84.60
2018-10-06T10:08:44.125Z,84.60
2018-10-06T10:11:14.208Z,85.00
2018-10-06T10:13:44.368Z,83.40
2018-10-06T10:16:14.446Z,83.80
2018-10-06T10:18:44.594Z,84.00
2018-10-06T10:21:14.679Z,84.60
2018-10-06T10:23:44.911Z,84.50
2018-10-06T10:26:14.898Z,84.20
2018-10-06T10:28:45.034Z,84.70
2018-10-06T10:31:15.114Z,83.00
2018-10-06T10:33:45.169Z,82.60
2018-10-06T10:36:15.224Z,82.30
2018-10-06T10:38:45.343Z,80.60
2018-10-06T10:41:15.385Z,80.10
2018-10-06T10:43:45.489Z,79.10
2018-10-06T10:46:15.575Z,76.20
2018-10-06T10:48:45.669Z,75.30
2018-10-06T10:51:15.825Z,77.30
2018-10-06T10:53:46.037Z,75.20
2018-10-06T10:56:16.190Z,74.20
2018-10-06T10:58:46.445Z,73.70
2018-10-06T11:01:16.573Z,74.50
2018-10-06T11:03:46.683Z,73.70
2018-10-06T11:06:16.745Z,74.60
2018-10-06T11:08:46.890Z,74.80
2018-10-06T11:11:17.026Z,75.30
2018-10-06T11:13:47.118Z,74.60
2018-10-06T11:16:17.253Z,74.00
2018-10-06T11:18:47.346Z,73.40
2018-10-06T11:21:17.459Z,73.90
2018-10-06T11:23:47.576Z,73.20
2018-10-06T11:26:17.809Z,72.90
2018-10-06T11:28:48.003Z,73.80
2018-10-06T11:31:18.312Z,72.30
2018-10-06T11:33:48.665Z,73.50
2018-10-06T11:36:18.761Z,74.40
2018-10-06T11:38:48.908Z,72.80
2018-10-06T11:41:19.031Z,72.00
2018-10-06T11:43:49.901Z,73.40
2018-10-06T11:46:20.058Z,72.30
2018-10-06T11:48:50.140Z,73.30
2018-10-06T11:51:20.348Z,70.60
2018-10-06T11:53:50.462Z,72.20
2018-10-06T11:56:20.607Z,72.60
2018-10-06T11:58:50.767Z,72.20
2018-10-06T12:01:20.930Z,72.90
2018-10-06T12:03:51.090Z,72.80
2018-10-06T12:06:21.257Z,73.50
2018-10-06T12:08:51.378Z,72.70
2018-10-06T12:11:21.447Z,72.90
2018-10-06T12:13:51.582Z,70.80
2018-10-06T12:16:21.662Z,72.40
2018-10-06T12:18:51.784Z,72.30
2018-10-06T12:21:21.900Z,72.50
2018-10-06T12:23:52.058Z,73.50
2018-10-06T12:26:22.172Z,72.80
2018-10-06T12:28:52.330Z,73.60
2018-10-06T12:31:22.580Z,74.10
2018-10-06T12:33:52.705Z,73.20
2018-10-06T12:36:22.824Z,73.70
2018-10-06T12:38:53.011Z,72.90
2018-10-06T12:41:23.153Z,73.10
2018-10-06T12:43:53.290Z,72.30
2018-10-06T12:46:23.423Z,72.80
2018-10-06T12:48:53.661Z,72.50
2018-10-06T12:51:24.962Z,72.40
2018-10-06T12:53:55.001Z,72.60
2018-10-06T12:56:25.117Z,72.50
2018-10-06T12:58:55.228Z,74.20
2018-10-06T13:01:25.402Z,73.10
2018-10-06T13:03:55.481Z,72.90
2018-10-06T13:06:25.629Z,72.60
2018-10-06T13:08:55.709Z,72.80
2018-10-06T13:11:25.841Z,71.70
2018-10-06T13:13:56.081Z,71.30
2018-10-06T13:16:26.189Z,72.10
2018-10-06T13:18:56.269Z,72.70
2018-10-06T13:21:26.362Z,72.90
2018-10-06T13:23:56.434Z,73.50
2018-10-06T13:26:26.605Z,73.90
2018-10-06T13:28:56.700Z,73.30
2018-10-06T13:31:26.783Z,74.50
2018-10-06T13:33:57.095Z,74.30
2018-10-06T13:36:27.258Z,73.70
2018-10-06T13:38:57.394Z,75.00
2018-10-06T13:41:27.532Z,73.90
2018-10-06T13:43:57.630Z,75.10
2018-10-06T13:46:27.791Z,75.10
2018-10-06T13:48:57.751Z,75.00
2018-10-06T13:51:27.917Z,76.00
2018-10-06T13:53:58.050Z,75.90
2018-10-06T13:56:28.346Z,75.70
2018-10-06T13:58:58.678Z,75.00
2018-10-06T14:01:28.891Z,75.50
2018-10-06T14:03:59.014Z,75.70
2018-10-06T14:06:29.208Z,75.80
2018-10-06T14:08:59.321Z,76.00
2018-10-06T14:11:30.059Z,75.70
2018-10-06T14:14:00.175Z,75.50
2018-10-06T14:16:30.303Z,75.90
2018-10-06T14:19:00.387Z,75.80
2018-10-06T14:21:30.497Z,76.30
2018-10-06T14:24:00.598Z,76.80
2018-10-06T14:26:30.809Z,77.60
2018-10-06T14:29:00.826Z,76.90
2018-10-06T14:31:30.924Z,77.50
2018-10-06T14:34:01.130Z,77.10
2018-10-06T14:36:31.184Z,77.10
2018-10-06T14:39:01.274Z,77.90
2018-10-06T14:41:31.449Z,77.60
2018-10-06T14:46:32.850Z,77.60
2018-10-06T14:49:02.925Z,77.40
2018-10-06T14:51:33.102Z,77.90
2018-10-06T14:54:03.197Z,78.40
2018-10-06T14:56:33.394Z,77.70
2018-10-06T14:59:03.498Z,77.50
2018-10-06T15:01:33.714Z,78.10
2018-10-06T15:04:03.970Z,77.80
2018-10-06T15:06:34.153Z,78.80
2018-10-06T15:09:05.893Z,78.80
2018-10-06T15:11:36.053Z,79.00
2018-10-06T15:14:06.653Z,79.50
2018-10-06T15:16:37.000Z,79.10
2018-10-06T15:19:07.110Z,79.50
2018-10-06T15:21:37.303Z,80.10
2018-10-06T15:24:07.491Z,80.20
2018-10-06T15:26:37.800Z,79.90
2018-10-06T15:29:07.949Z,80.60
2018-10-06T15:31:38.161Z,81.00
2018-10-06T15:34:08.354Z,81.20
2018-10-06T15:36:38.640Z,82.20
2018-10-06T15:39:09.285Z,82.20
2018-10-06T15:41:39.609Z,82.60
2018-10-06T15:44:09.728Z,82.40
2018-10-06T15:46:40.112Z,81.90
2018-10-06T15:49:10.682Z,83.10
2018-10-06T15:51:41.289Z,81.80
2018-10-06T15:54:11.957Z,81.20
2018-10-06T15:56:42.720Z,82.30
2018-10-06T15:59:13.005Z,82.30
2018-10-06T16:01:43.505Z,82.30
2018-10-06T16:04:13.722Z,82.20
2018-10-06T16:06:44.001Z,81.50
2018-10-06T16:09:14.142Z,81.50
2018-10-06T16:11:44.210Z,82.30
2018-10-06T16:14:14.402Z,82.30
2018-10-06T16:16:44.918Z,82.50
2018-10-06T16:19:15.173Z,82.70
2018-10-06T16:21:45.352Z,82.80
2018-10-06T16:24:15.372Z,82.60
2018-10-06T16:26:45.486Z,83.80
2018-10-06T16:29:15.633Z,82.40
2018-10-06T16:31:45.730Z,82.60
2018-10-06T16:34:15.794Z,81.90
2018-10-06T16:36:45.849Z,84.70
2018-10-06T16:39:15.914Z,85.80
2018-10-06T16:41:45.946Z,84.20
2018-10-06T16:44:15.992Z,84.30
2018-10-06T16:46:46.042Z,83.70
2018-10-06T16:49:16.101Z,83.60
2018-10-06T16:51:46.211Z,84.80
2018-10-06T16:54:16.250Z,86.80
2018-10-06T16:56:46.301Z,87.00
2018-10-06T16:59:16.440Z,87.50
2018-10-06T17:01:46.533Z,88.20
2018-10-06T17:04:16.594Z,88.00
2018-10-06T17:06:46.582Z,88.50
2018-10-06T17:09:16.697Z,88.10
2018-10-06T17:11:46.824Z,88.50
2018-10-06T17:14:16.926Z,88.20
2018-10-06T17:16:47.070Z,86.90
2018-10-06T17:19:17.854Z,89.20
2018-10-06T17:21:48.095Z,87.50
2018-10-06T17:24:18.324Z,86.10
2018-10-06T17:26:48.461Z,86.90
2018-10-06T17:29:18.632Z,89.00
2018-10-06T17:31:49.050Z,87.60
2018-10-06T17:34:19.118Z,88.70
2018-10-06T17:36:49.439Z,89.40
2018-10-06T17:39:19.566Z,89.50
2018-10-06T17:41:49.686Z,88.60
2018-10-06T17:44:19.856Z,88.50
2018-10-06T17:46:49.897Z,88.00
2018-10-06T17:49:19.966Z,88.20
2018-10-06T17:51:50.074Z,87.70
2018-10-06T17:54:20.284Z,87.50
2018-10-06T17:56:50.393Z,88.60
2018-10-06T17:59:20.569Z,86.90
2018-10-06T18:01:50.602Z,86.60
2018-10-06T18:04:20.701Z,86.80
2018-10-06T18:06:50.750Z,87.30
2018-10-06T18:09:20.817Z,89.30
2018-10-06T18:11:50.946Z,89.30
2018-10-06T18:14:21.065Z,90.40
2018-10-06T18:16:51.198Z,89.90
2018-10-06T18:19:21.309Z,89.70
2018-10-06T18:21:51.378Z,89.30
2018-10-06T18:24:21.517Z,89.40
2018-10-06T18:26:51.597Z,88.70
2018-10-06T18:29:21.692Z,87.60
2018-10-06T18:31:51.757Z,88.20
2018-10-06T18:34:21.784Z,88.70
2018-10-06T18:36:51.859Z,89.80
2018-10-06T18:39:21.877Z,90.40
2018-10-06T18:41:51.933Z,90.60
2018-10-06T18:44:21.993Z,90.80
2018-10-06T18:46:52.038Z,90.70
2018-10-06T18:49:22.132Z,91.00
2018-10-06T18:51:52.202Z,91.40
2018-10-06T18:54:22.341Z,91.40
2018-10-06T18:56:52.325Z,91.50
2018-10-06T18:59:22.450Z,91.60
2018-10-06T19:01:52.533Z,91.50
2018-10-06T19:04:22.696Z,91.50
2018-10-06T19:06:52.865Z,91.70
2018-10-06T19:09:22.981Z,91.90
2018-10-06T19:11:53.023Z,92.00
2018-10-06T19:14:23.141Z,91.90
2018-10-06T19:16:53.281Z,92.00
2018-10-06T19:19:23.429Z,91.60
2018-10-06T19:21:53.482Z,91.80
2018-10-06T19:24:23.539Z,92.20
2018-10-06T19:26:53.585Z,91.80
2018-10-06T19:29:23.597Z,92.10
2018-10-06T19:31:53.673Z,92.40
2018-10-06T19:34:23.726Z,91.90
2018-10-06T19:36:53.800Z,91.80
2018-10-06T19:39:23.866Z,92.50
2018-10-06T19:41:53.953Z,92.20
2018-10-06T19:44:23.983Z,91.90
2018-10-06T19:46:54.118Z,92.00
2018-10-06T19:49:24.200Z,92.40
2018-10-06T19:51:54.221Z,92.10
2018-10-06T19:54:24.272Z,92.40
2018-10-06T19:56:54.329Z,92.60
2018-10-06T19:59:24.486Z,92.30
2018-10-06T20:01:54.501Z,92.10
2018-10-06T20:04:24.682Z,91.90
2018-10-06T20:06:54.722Z,91.70
2018-10-06T20:09:24.745Z,92.10
2018-10-06T20:11:54.819Z,91.90
2018-10-06T20:14:24.840Z,92.10
2018-10-06T20:16:54.937Z,92.40
2018-10-06T20:19:25.001Z,92.40
2018-10-06T20:21:55.014Z,92.40
2018-10-06T20:24:25.018Z,92.20
2018-10-06T20:26:55.094Z,92.80
2018-10-06T20:29:25.104Z,93.00
2018-10-06T20:31:55.127Z,92.40
2018-10-06T20:34:25.182Z,92.60
2018-10-06T20:36:55.198Z,92.60
2018-10-06T20:39:25.229Z,92.80
2018-10-06T20:41:55.301Z,92.50
2018-10-06T20:44:25.338Z,92.80
2018-10-06T20:46:55.383Z,92.60
2018-10-06T20:49:25.410Z,92.30
2018-10-06T20:51:55.422Z,92.30
2018-10-06T20:54:25.448Z,92.30
2018-10-06T20:56:55.437Z,92.70
2018-10-06T20:59:25.542Z,92.50
2018-10-06T21:01:55.632Z,92.30
2018-10-06T21:04:25.649Z,92.40
2018-10-06T21:06:55.658Z,92.60
2018-10-06T21:09:25.726Z,92.70
2018-10-06T21:11:55.763Z,92.70
2018-10-06T21:14:25.822Z,92.60
2018-10-06T21:16:55.862Z,92.60
2018-10-06T21:19:25.896Z,92.60
2018-10-06T21:21:55.898Z,92.80
2018-10-06T21:24:25.953Z,92.60
2018-10-06T21:26:56.057Z,92.40
2018-10-06T21:29:26.241Z,92.50
2018-10-06T21:31:56.161Z,92.40
2018-10-06T21:34:26.195Z,92.70
2018-10-06T21:36:56.222Z,92.50
2018-10-06T21:39:26.267Z,92.80
2018-10-06T21:41:56.298Z,93.20
2018-10-06T21:44:26.325Z,93.30
2018-10-06T21:46:56.431Z,93.10
2018-10-06T21:49:26.471Z,93.10
2018-10-06T21:51:56.510Z,93.30
2018-10-06T21:54:26.533Z,93.80
2018-10-06T21:56:56.625Z,93.20
2018-10-06T21:59:26.633Z,93.00
2018-10-06T22:01:56.694Z,93.00
2018-10-06T22:04:26.749Z,93.00
2018-10-06T22:06:56.798Z,93.10
2018-10-06T22:09:26.850Z,93.20
2018-10-06T22:11:56.922Z,93.20
2018-10-06T22:14:26.941Z,93.10
2018-10-06T22:16:56.981Z,92.80
2018-10-06T22:19:27.015Z,93.00
2018-10-06T22:21:57.061Z,93.30
2018-10-06T22:24:27.085Z,93.10
2018-10-06T22:26:57.210Z,93.10
2018-10-06T22:29:27.250Z,93.10
2018-10-06T22:31:57.281Z,93.10
2018-10-06T22:34:27.301Z,93.20
2018-10-06T22:36:57.359Z,93.00
2018-10-06T22:39:27.393Z,93.00
2018-10-06T22:41:57.498Z,93.00
2018-10-06T22:44:27.502Z,93.20
2018-10-06T22:46:57.570Z,92.80
2018-10-06T22:49:27.598Z,93.00
2018-10-06T22:51:57.641Z,92.70
2018-10-06T22:54:27.683Z,92.40
2018-10-06T22:56:57.763Z,92.70
2018-10-06T22:59:27.740Z,93.20
2018-10-06T23:01:57.770Z,92.90
2018-10-06T23:04:27.830Z,92.70
2018-10-06T23:06:57.866Z,92.60
2018-10-06T23:09:27.926Z,92.60
2018-10-06T23:11:57.959Z,92.50
2018-10-06T23:14:28.002Z,92.70
2018-10-06T23:16:58.081Z,92.70
2018-10-06T23:19:28.137Z,92.70
2018-10-06T23:21:58.141Z,92.80
2018-10-06T23:24:28.182Z,93.00
2018-10-06T23:26:58.206Z,92.90
2018-10-06T23:29:28.222Z,92.70
2018-10-06T23:31:58.206Z,92.60
2018-10-06T23:34:28.250Z,92.50
2018-10-06T23:36:58.281Z,92.30
2018-10-06T23:39:28.309Z,92.20
2018-10-06T23:41:58.357Z,92.30
2018-10-06T23:44:28.463Z,92.20
2018-10-06T23:46:58.461Z,92.20
2018-10-06T23:49:28.452Z,92.50
2018-10-06T23:51:58.501Z,92.40
2018-10-06T23:54:28.599Z,92.40
2018-10-06T23:56:58.617Z,92.50
2018-10-06T23:59:28.681Z,92.60
